sensor_id;sensor_type;location;lat;lon;timestamp;pressure;altitude;pressure_sealevel;temperature;humidity
39897;BME280;25567;48.276;14.242;2024-03-02T00:00:50;97677.16;;;6.67;82.44
39897;BME280;25567;48.276;14.242;2024-03-02T00:03:18;97675.59;;;6.63;82.19
39897;BME280;25567;48.276;14.242;2024-03-02T00:05:49;97673.22;;;6.58;82.35
39897;BME280;25567;48.276;14.242;2024-03-02T00:08:23;97675.03;;;6.55;82.48
39897;BME280;25567;48.276;14.242;2024-03-02T00:10:52;97677.69;;;6.52;82.33
39897;BME280;25567;48.276;14.242;2024-03-02T00:13:23;97668.38;;;6.51;82.49
39897;BME280;25567;48.276;14.242;2024-03-02T00:15:54;97660.75;;;6.51;82.28
39897;BME280;25567;48.276;14.242;2024-03-02T00:18:32;97665.06;;;6.49;82.62
39897;BME280;25567;48.276;14.242;2024-03-02T00:21:00;97663.41;;;6.48;82.23
39897;BME280;25567;48.276;14.242;2024-03-02T00:23:33;97663.53;;;6.45;82.85
39897;BME280;25567;48.276;14.242;2024-03-02T00:26:02;97661.00;;;6.43;82.39
39897;BME280;25567;48.276;14.242;2024-03-02T00:28:31;97657.78;;;6.38;82.18
39897;BME280;25567;48.276;14.242;2024-03-02T00:31:04;97656.97;;;6.38;82.36
39897;BME280;25567;48.276;14.242;2024-03-02T00:33:42;97659.59;;;6.35;82.55
39897;BME280;25567;48.276;14.242;2024-03-02T00:36:11;97663.66;;;6.40;82.48
39897;BME280;25567;48.276;14.242;2024-03-02T00:38:58;97657.94;;;6.34;82.04
39897;BME280;25567;48.276;14.242;2024-03-02T00:41:29;97655.59;;;6.28;82.46
39897;BME280;25567;48.276;14.242;2024-03-02T00:44:09;97653.06;;;6.28;82.17
39897;BME280;25567;48.276;14.242;2024-03-02T00:46:41;97653.25;;;6.22;82.39
39897;BME280;25567;48.276;14.242;2024-03-02T00:51:52;97660.28;;;6.14;82.77
39897;BME280;25567;48.276;14.242;2024-03-02T00:54:25;97660.38;;;6.11;82.79
39897;BME280;25567;48.276;14.242;2024-03-02T00:56:52;97657.06;;;6.09;82.63
39897;BME280;25567;48.276;14.242;2024-03-02T00:59:23;97665.47;;;6.11;82.74
39897;BME280;25567;48.276;14.242;2024-03-02T01:01:50;97666.31;;;6.11;82.58
39897;BME280;25567;48.276;14.242;2024-03-02T01:04:17;97662.97;;;6.09;82.34
39897;BME280;25567;48.276;14.242;2024-03-02T01:06:44;97661.28;;;6.10;82.72
39897;BME280;25567;48.276;14.242;2024-03-02T01:09:11;97659.50;;;6.12;82.68
39897;BME280;25567;48.276;14.242;2024-03-02T01:11:39;97657.91;;;6.09;82.43
39897;BME280;25567;48.276;14.242;2024-03-02T01:14:06;97652.81;;;6.09;82.67
39897;BME280;25567;48.276;14.242;2024-03-02T01:16:32;97656.38;;;6.04;82.22
39897;BME280;25567;48.276;14.242;2024-03-02T01:18:59;97654.06;;;5.96;82.42
39897;BME280;25567;48.276;14.242;2024-03-02T01:21:26;97661.06;;;5.90;81.96
39897;BME280;25567;48.276;14.242;2024-03-02T01:23:53;97651.91;;;5.84;82.21
39897;BME280;25567;48.276;14.242;2024-03-02T01:26:20;97658.81;;;5.79;82.13
39897;BME280;25567;48.276;14.242;2024-03-02T01:28:47;97658.91;;;5.76;82.33
39897;BME280;25567;48.276;14.242;2024-03-02T01:31:13;97659.81;;;5.74;82.20
39897;BME280;25567;48.276;14.242;2024-03-02T01:33:40;97658.16;;;5.73;81.89
39897;BME280;25567;48.276;14.242;2024-03-02T01:36:07;97656.38;;;5.76;81.83
39897;BME280;25567;48.276;14.242;2024-03-02T01:38:35;97659.97;;;5.69;81.35
39897;BME280;25567;48.276;14.242;2024-03-02T01:41:01;97662.63;;;5.65;81.74
39897;BME280;25567;48.276;14.242;2024-03-02T01:43:29;97666.91;;;5.63;82.11
39897;BME280;25567;48.276;14.242;2024-03-02T01:45:55;97660.91;;;5.65;82.15
39897;BME280;25567;48.276;14.242;2024-03-02T01:48:23;97660.97;;;5.64;82.20
39897;BME280;25567;48.276;14.242;2024-03-02T01:50:50;97660.13;;;5.63;81.93
39897;BME280;25567;48.276;14.242;2024-03-02T01:53:16;97660.34;;;5.55;82.17
39897;BME280;25567;48.276;14.242;2024-03-02T01:55:43;97656.16;;;5.54;82.02
39897;BME280;25567;48.276;14.242;2024-03-02T01:58:10;97657.81;;;5.55;82.08
39897;BME280;25567;48.276;14.242;2024-03-02T02:00:37;97662.94;;;5.54;82.41
39897;BME280;25567;48.276;14.242;2024-03-02T02:03:04;97657.13;;;5.50;82.81
39897;BME280;25567;48.276;14.242;2024-03-02T02:05:30;97655.38;;;5.52;82.68
39897;BME280;25567;48.276;14.242;2024-03-02T02:07:58;97658.75;;;5.53;82.56
39897;BME280;25567;48.276;14.242;2024-03-02T02:10:25;97660.44;;;5.52;82.82
39897;BME280;25567;48.276;14.242;2024-03-02T02:12:52;97654.59;;;5.50;83.01
39897;BME280;25567;48.276;14.242;2024-03-02T02:15:24;97654.63;;;5.49;82.85
39897;BME280;25567;48.276;14.242;2024-03-02T02:17:50;97653.69;;;5.51;83.18
39897;BME280;25567;48.276;14.242;2024-03-02T02:20:18;97651.94;;;5.53;83.26
39897;BME280;25567;48.276;14.242;2024-03-02T02:23:04;97657.75;;;5.57;82.64
39897;BME280;25567;48.276;14.242;2024-03-02T02:25:37;97657.91;;;5.52;82.61
39897;BME280;25567;48.276;14.242;2024-03-02T02:28:04;97652.88;;;5.51;82.81
39897;BME280;25567;48.276;14.242;2024-03-02T02:30:32;97655.38;;;5.52;82.98
39897;BME280;25567;48.276;14.242;2024-03-02T02:32:59;97646.88;;;5.53;83.51
39897;BME280;25567;48.276;14.242;2024-03-02T02:35:26;97646.81;;;5.57;83.46
39897;BME280;25567;48.276;14.242;2024-03-02T02:37:54;97637.47;;;5.57;83.35
39897;BME280;25567;48.276;14.242;2024-03-02T02:40:22;97635.66;;;5.61;83.31
39897;BME280;25567;48.276;14.242;2024-03-02T02:42:49;97628.03;;;5.61;83.49
39897;BME280;25567;48.276;14.242;2024-03-02T02:45:18;97627.09;;;5.65;83.53
39897;BME280;25567;48.276;14.242;2024-03-02T02:47:45;97624.31;;;5.72;83.86
39897;BME280;25567;48.276;14.242;2024-03-02T02:50:12;97626.66;;;5.78;83.66
39897;BME280;25567;48.276;14.242;2024-03-02T02:52:40;97633.38;;;5.81;83.25
39897;BME280;25567;48.276;14.242;2024-03-02T02:55:09;97632.47;;;5.82;83.05
39897;BME280;25567;48.276;14.242;2024-03-02T02:57:38;97629.31;;;5.75;83.25
39897;BME280;25567;48.276;14.242;2024-03-02T03:00:08;97620.09;;;5.73;83.18
39897;BME280;25567;48.276;14.242;2024-03-02T03:02:37;97615.91;;;5.70;83.54
39897;BME280;25567;48.276;14.242;2024-03-02T03:05:05;97614.22;;;5.71;83.73
39897;BME280;25567;48.276;14.242;2024-03-02T03:07:32;97614.13;;;5.74;83.64
39897;BME280;25567;48.276;14.242;2024-03-02T03:10:01;97605.66;;;5.73;83.73
39897;BME280;25567;48.276;14.242;2024-03-02T03:12:28;97607.38;;;5.73;83.45
39897;BME280;25567;48.276;14.242;2024-03-02T03:14:55;97613.22;;;5.75;83.86
39897;BME280;25567;48.276;14.242;2024-03-02T03:17:22;97614.91;;;5.76;83.84
39897;BME280;25567;48.276;14.242;2024-03-02T03:19:50;97613.03;;;5.81;83.36
39897;BME280;25567;48.276;14.242;2024-03-02T03:22:17;97613.88;;;5.81;83.18
39897;BME280;25567;48.276;14.242;2024-03-02T03:24:43;97610.66;;;5.76;83.60
39897;BME280;25567;48.276;14.242;2024-03-02T03:27:10;97612.53;;;5.70;83.29
39897;BME280;25567;48.276;14.242;2024-03-02T03:29:40;97611.69;;;5.71;83.24
39897;BME280;25567;48.276;14.242;2024-03-02T03:32:07;97611.53;;;5.75;83.61
39897;BME280;25567;48.276;14.242;2024-03-02T03:34:34;97612.38;;;5.76;83.21
39897;BME280;25567;48.276;14.242;2024-03-02T03:37:02;97614.28;;;5.68;83.76
39897;BME280;25567;48.276;14.242;2024-03-02T03:39:29;97614.38;;;5.65;83.67
39897;BME280;25567;48.276;14.242;2024-03-02T03:41:55;97614.38;;;5.65;83.59
39897;BME280;25567;48.276;14.242;2024-03-02T03:44:22;97618.56;;;5.67;83.44
39897;BME280;25567;48.276;14.242;2024-03-02T03:46:49;97616.81;;;5.68;83.53
39897;BME280;25567;48.276;14.242;2024-03-02T03:49:15;97611.84;;;5.65;83.71
39897;BME280;25567;48.276;14.242;2024-03-02T03:51:42;97612.00;;;5.60;84.30
39897;BME280;25567;48.276;14.242;2024-03-02T03:54:09;97614.56;;;5.58;84.14
39897;BME280;25567;48.276;14.242;2024-03-02T03:56:38;97618.72;;;5.61;83.71
39897;BME280;25567;48.276;14.242;2024-03-02T03:59:05;97616.13;;;5.63;84.35
39897;BME280;25567;48.276;14.242;2024-03-02T04:01:31;97615.97;;;5.69;84.19
39897;BME280;25567;48.276;14.242;2024-03-02T04:03:58;97608.25;;;5.72;83.86
39897;BME280;25567;48.276;14.242;2024-03-02T04:06:25;97608.19;;;5.73;83.93
39897;BME280;25567;48.276;14.242;2024-03-02T04:08:52;97603.78;;;5.80;83.42
39897;BME280;25567;48.276;14.242;2024-03-02T04:11:19;97601.19;;;5.81;83.72
39897;BME280;25567;48.276;14.242;2024-03-02T04:13:45;97605.34;;;5.84;83.38
39897;BME280;25567;48.276;14.242;2024-03-02T04:16:12;97616.41;;;5.83;83.54
39897;BME280;25567;48.276;14.242;2024-03-02T04:18:39;97612.00;;;5.88;83.85
39897;BME280;25567;48.276;14.242;2024-03-02T04:21:06;97613.59;;;5.92;83.21
39897;BME280;25567;48.276;14.242;2024-03-02T04:23:33;97618.06;;;5.82;83.09
39897;BME280;25567;48.276;14.242;2024-03-02T04:25:59;97614.00;;;5.77;83.01
39897;BME280;25567;48.276;14.242;2024-03-02T04:28:26;97620.91;;;5.73;83.62
39897;BME280;25567;48.276;14.242;2024-03-02T04:30:53;97618.47;;;5.70;83.58
39897;BME280;25567;48.276;14.242;2024-03-02T04:33:19;97621.84;;;5.71;83.28
39897;BME280;25567;48.276;14.242;2024-03-02T04:35:46;97620.09;;;5.71;83.35
39897;BME280;25567;48.276;14.242;2024-03-02T04:38:13;97619.25;;;5.72;83.43
39897;BME280;25567;48.276;14.242;2024-03-02T04:40:40;97619.19;;;5.74;83.18
39897;BME280;25567;48.276;14.242;2024-03-02T04:43:06;97616.88;;;5.66;83.45
39897;BME280;25567;48.276;14.242;2024-03-02T04:45:38;97616.94;;;5.65;83.74
39897;BME280;25567;48.276;14.242;2024-03-02T04:48:05;97608.41;;;5.67;83.24
39897;BME280;25567;48.276;14.242;2024-03-02T04:50:32;97609.31;;;5.65;83.68
39897;BME280;25567;48.276;14.242;2024-03-02T04:52:58;97602.66;;;5.61;83.77
39897;BME280;25567;48.276;14.242;2024-03-02T04:55:25;97611.16;;;5.60;83.65
39897;BME280;25567;48.276;14.242;2024-03-02T04:57:55;97610.31;;;5.59;83.69
39897;BME280;25567;48.276;14.242;2024-03-02T05:00:23;97606.94;;;5.58;83.84
39897;BME280;25567;48.276;14.242;2024-03-02T05:02:50;97610.53;;;5.53;84.01
39897;BME280;25567;48.276;14.242;2024-03-02T05:05:17;97607.16;;;5.52;83.46
39897;BME280;25567;48.276;14.242;2024-03-02T05:07:44;97604.63;;;5.52;83.77
39897;BME280;25567;48.276;14.242;2024-03-02T05:10:11;97602.06;;;5.52;83.28
39897;BME280;25567;48.276;14.242;2024-03-02T05:12:41;97606.38;;;5.50;83.42
39897;BME280;25567;48.276;14.242;2024-03-02T05:15:12;97609.81;;;5.48;83.60
39897;BME280;25567;48.276;14.242;2024-03-02T05:17:41;97609.38;;;5.34;83.19
39897;BME280;25567;48.276;14.242;2024-03-02T05:20:10;97606.94;;;5.31;83.27
39897;BME280;25567;48.276;14.242;2024-03-02T05:22:37;97611.28;;;5.27;83.12
39897;BME280;25567;48.276;14.242;2024-03-02T05:25:04;97613.91;;;5.24;83.43
39897;BME280;25567;48.276;14.242;2024-03-02T05:27:31;97616.34;;;5.27;83.17
39897;BME280;25567;48.276;14.242;2024-03-02T05:30:00;97615.56;;;5.25;83.40
39897;BME280;25567;48.276;14.242;2024-03-02T05:32:27;97625.81;;;5.22;83.67
39897;BME280;25567;48.276;14.242;2024-03-02T05:34:53;97615.66;;;5.22;83.36
39897;BME280;25567;48.276;14.242;2024-03-02T05:37:21;97619.19;;;5.17;83.55
39897;BME280;25567;48.276;14.242;2024-03-02T05:39:48;97611.53;;;5.18;83.69
39897;BME280;25567;48.276;14.242;2024-03-02T05:42:15;97612.38;;;5.19;83.81
39897;BME280;25567;48.276;14.242;2024-03-02T05:44:43;97622.56;;;5.17;83.48
39897;BME280;25567;48.276;14.242;2024-03-02T05:47:10;97625.06;;;5.19;83.41
39897;BME280;25567;48.276;14.242;2024-03-02T05:49:36;97622.38;;;5.25;84.13
39897;BME280;25567;48.276;14.242;2024-03-02T05:52:03;97626.44;;;5.29;83.83
39897;BME280;25567;48.276;14.242;2024-03-02T05:54:30;97626.34;;;5.33;84.29
39897;BME280;25567;48.276;14.242;2024-03-02T05:56:57;97628.72;;;5.38;84.09
39897;BME280;25567;48.276;14.242;2024-03-02T05:59:42;97636.19;;;5.44;84.11
39897;BME280;25567;48.276;14.242;2024-03-02T06:02:10;97627.63;;;5.46;83.59
39897;BME280;25567;48.276;14.242;2024-03-02T06:04:37;97629.19;;;5.50;83.43
39897;BME280;25567;48.276;14.242;2024-03-02T06:07:03;97624.19;;;5.49;83.99
39897;BME280;25567;48.276;14.242;2024-03-02T06:09:30;97628.09;;;5.59;83.45
39897;BME280;25567;48.276;14.242;2024-03-02T06:11:57;97637.56;;;5.54;83.98
39897;BME280;25567;48.276;14.242;2024-03-02T06:14:24;97636.75;;;5.52;83.92
39897;BME280;25567;48.276;14.242;2024-03-02T06:16:50;97639.31;;;5.52;84.38
39897;BME280;25567;48.276;14.242;2024-03-02T06:19:17;97638.28;;;5.57;84.31
39897;BME280;25567;48.276;14.242;2024-03-02T06:21:44;97646.94;;;5.80;83.57
39897;BME280;25567;48.276;14.242;2024-03-02T06:24:11;97651.91;;;5.84;82.80
39897;BME280;25567;48.276;14.242;2024-03-02T06:26:37;97651.31;;;5.75;83.35
39897;BME280;25567;48.276;14.242;2024-03-02T06:29:06;97652.41;;;5.66;83.49
39897;BME280;25567;48.276;14.242;2024-03-02T06:31:32;97655.91;;;5.64;83.90
39897;BME280;25567;48.276;14.242;2024-03-02T06:33:59;97660.09;;;5.65;84.26
39897;BME280;25567;48.276;14.242;2024-03-02T06:36:26;97666.63;;;5.72;84.22
39897;BME280;25567;48.276;14.242;2024-03-02T06:38:53;97668.91;;;5.81;83.74
39897;BME280;25567;48.276;14.242;2024-03-02T06:41:19;97670.59;;;5.80;83.55
39897;BME280;25567;48.276;14.242;2024-03-02T06:43:46;97670.59;;;5.80;83.76
39897;BME280;25567;48.276;14.242;2024-03-02T06:46:13;97667.25;;;5.80;83.87
39897;BME280;25567;48.276;14.242;2024-03-02T06:48:41;97679.06;;;5.81;84.05
39897;BME280;25567;48.276;14.242;2024-03-02T06:51:08;97683.13;;;5.88;83.73
39897;BME280;25567;48.276;14.242;2024-03-02T06:53:35;97677.03;;;5.93;83.85
39897;BME280;25567;48.276;14.242;2024-03-02T06:56:01;97687.91;;;5.97;84.04
39897;BME280;25567;48.276;14.242;2024-03-02T06:58:28;97682.75;;;6.00;84.15
39897;BME280;25567;48.276;14.242;2024-03-02T07:00:55;97688.56;;;6.03;83.96
39897;BME280;25567;48.276;14.242;2024-03-02T07:03:22;97700.19;;;6.10;83.66
39897;BME280;25567;48.276;14.242;2024-03-02T07:05:49;97696.78;;;6.11;83.93
39897;BME280;25567;48.276;14.242;2024-03-02T07:08:15;97702.41;;;6.21;83.40
39897;BME280;25567;48.276;14.242;2024-03-02T07:10:42;97705.72;;;6.23;83.58
39897;BME280;25567;48.276;14.242;2024-03-02T07:13:09;97708.16;;;6.26;83.40
39897;BME280;25567;48.276;14.242;2024-03-02T07:15:35;97700.47;;;6.29;83.54
39897;BME280;25567;48.276;14.242;2024-03-02T07:18:21;97700.38;;;6.32;83.58
39897;BME280;25567;48.276;14.242;2024-03-02T07:20:47;97707.75;;;6.39;83.17
39897;BME280;25567;48.276;14.242;2024-03-02T07:23:16;97705.16;;;6.41;83.45
39897;BME280;25567;48.276;14.242;2024-03-02T07:25:42;97706.63;;;6.48;83.24
39897;BME280;25567;48.276;14.242;2024-03-02T07:28:12;97715.84;;;6.50;83.25
39897;BME280;25567;48.276;14.242;2024-03-02T07:30:38;97714.81;;;6.56;83.29
39897;BME280;25567;48.276;14.242;2024-03-02T07:33:06;97714.81;;;6.56;83.06
39897;BME280;25567;48.276;14.242;2024-03-02T07:35:33;97713.84;;;6.60;83.13
39897;BME280;25567;48.276;14.242;2024-03-02T07:38:00;97717.22;;;6.60;83.25
39897;BME280;25567;48.276;14.242;2024-03-02T07:40:27;97717.19;;;6.62;83.37
39897;BME280;25567;48.276;14.242;2024-03-02T07:42:53;97717.97;;;6.64;83.22
39897;BME280;25567;48.276;14.242;2024-03-02T07:45:21;97723.63;;;6.72;83.19
39897;BME280;25567;48.276;14.242;2024-03-02T07:47:48;97725.97;;;6.78;82.76
39897;BME280;25567;48.276;14.242;2024-03-02T07:50:16;97726.59;;;6.85;82.62
39897;BME280;25567;48.276;14.242;2024-03-02T07:52:43;97727.22;;;6.91;82.41
39897;BME280;25567;48.276;14.242;2024-03-02T07:55:10;97724.53;;;6.96;82.51
39897;BME280;25567;48.276;14.242;2024-03-02T07:57:36;97726.97;;;6.99;82.19
39897;BME280;25567;48.276;14.242;2024-03-02T08:00:03;97724.28;;;7.03;82.30
39897;BME280;25567;48.276;14.242;2024-03-02T08:02:30;97735.19;;;7.07;82.34
39897;BME280;25567;48.276;14.242;2024-03-02T08:04:57;97733.44;;;7.07;82.19
39897;BME280;25567;48.276;14.242;2024-03-02T08:07:24;97733.38;;;7.10;82.14
39897;BME280;25567;48.276;14.242;2024-03-02T08:09:50;97738.34;;;7.13;82.02
39897;BME280;25567;48.276;14.242;2024-03-02T08:12:17;97725.41;;;7.19;81.82
39897;BME280;25567;48.276;14.242;2024-03-02T08:14:46;97732.94;;;7.22;81.72
39897;BME280;25567;48.276;14.242;2024-03-02T08:17:12;97731.22;;;7.23;81.64
39897;BME280;25567;48.276;14.242;2024-03-02T08:19:39;97739.19;;;7.14;81.87
39897;BME280;25567;48.276;14.242;2024-03-02T08:22:06;97736.47;;;7.18;81.78
39897;BME280;25567;48.276;14.242;2024-03-02T08:24:33;97731.25;;;7.21;81.35
39897;BME280;25567;48.276;14.242;2024-03-02T08:27:00;97735.09;;;7.33;81.04
39897;BME280;25567;48.276;14.242;2024-03-02T08:29:27;97742.94;;;7.27;80.93
39897;BME280;25567;48.276;14.242;2024-03-02T08:31:54;97742.06;;;7.28;80.77
39897;BME280;25567;48.276;14.242;2024-03-02T08:34:21;97741.91;;;7.32;81.04
39897;BME280;25567;48.276;14.242;2024-03-02T08:36:47;97730.94;;;7.30;80.62
39897;BME280;25567;48.276;14.242;2024-03-02T08:39:15;97736.81;;;7.32;80.70
39897;BME280;25567;48.276;14.242;2024-03-02T08:41:44;97728.91;;;7.40;80.51
39897;BME280;25567;48.276;14.242;2024-03-02T08:44:11;97735.84;;;7.36;80.12
39897;BME280;25567;48.276;14.242;2024-03-02T08:46:39;97725.22;;;7.48;79.87
39897;BME280;25567;48.276;14.242;2024-03-02T08:49:06;97730.31;;;7.48;80.08
39897;BME280;25567;48.276;14.242;2024-03-02T08:51:33;97735.34;;;7.50;80.18
39897;BME280;25567;48.276;14.242;2024-03-02T08:54:00;97726.78;;;7.52;80.39
39897;BME280;25567;48.276;14.242;2024-03-02T08:56:26;97727.25;;;7.62;79.98
39897;BME280;25567;48.276;14.242;2024-03-02T08:58:53;97738.34;;;7.61;79.90
39897;BME280;25567;48.276;14.242;2024-03-02T09:01:20;97741.47;;;7.67;79.67
39897;BME280;25567;48.276;14.242;2024-03-02T09:03:47;97741.53;;;7.66;79.87
39897;BME280;25567;48.276;14.242;2024-03-02T09:06:15;97747.47;;;7.66;79.68
39897;BME280;25567;48.276;14.242;2024-03-02T09:08:47;97743.03;;;7.71;79.56
39897;BME280;25567;48.276;14.242;2024-03-02T09:11:14;97745.59;;;7.71;79.36
39897;BME280;25567;48.276;14.242;2024-03-02T09:13:41;97746.97;;;7.80;78.51
39897;BME280;25567;48.276;14.242;2024-03-02T09:16:08;97752.38;;;7.71;78.90
39897;BME280;25567;48.276;14.242;2024-03-02T09:18:37;97756.63;;;7.72;79.23
39897;BME280;25567;48.276;14.242;2024-03-02T09:21:04;97755.66;;;7.74;78.91
39897;BME280;25567;48.276;14.242;2024-03-02T09:23:31;97760.81;;;7.73;78.87
39897;BME280;25567;48.276;14.242;2024-03-02T09:25:58;97760.22;;;7.66;78.80
39897;BME280;25567;48.276;14.242;2024-03-02T09:28:25;97765.63;;;7.57;78.95
39897;BME280;25567;48.276;14.242;2024-03-02T09:30:52;97762.38;;;7.77;78.37
39897;BME280;25567;48.276;14.242;2024-03-02T09:33:20;97759.44;;;7.88;77.57
39897;BME280;25567;48.276;14.242;2024-03-02T09:35:47;97760.41;;;7.84;78.22
39897;BME280;25567;48.276;14.242;2024-03-02T09:38:16;97764.53;;;7.88;77.92
39897;BME280;25567;48.276;14.242;2024-03-02T09:40:43;97754.47;;;7.85;78.27
39897;BME280;25567;48.276;14.242;2024-03-02T09:43:10;97749.78;;;7.96;77.68
39897;BME280;25567;48.276;14.242;2024-03-02T09:45:38;97750.22;;;8.07;77.59
39897;BME280;25567;48.276;14.242;2024-03-02T09:48:05;97750.34;;;8.04;77.86
39897;BME280;25567;48.276;14.242;2024-03-02T09:50:32;97747.13;;;7.99;78.21
39897;BME280;25567;48.276;14.242;2024-03-02T09:52:59;97752.31;;;7.96;78.27
39897;BME280;25567;48.276;14.242;2024-03-02T09:55:26;97745.31;;;8.02;77.53
39897;BME280;25567;48.276;14.242;2024-03-02T09:57:53;97752.63;;;8.10;76.91
39897;BME280;25567;48.276;14.242;2024-03-02T10:00:20;97748.50;;;8.07;76.53
39897;BME280;25567;48.276;14.242;2024-03-02T10:02:46;97747.59;;;8.08;76.50
39897;BME280;25567;48.276;14.242;2024-03-02T10:05:25;97754.06;;;8.17;75.66
39897;BME280;25567;48.276;14.242;2024-03-02T10:07:59;97756.88;;;8.11;75.92
39897;BME280;25567;48.276;14.242;2024-03-02T10:10:38;97760.06;;;8.16;75.70
39897;BME280;25567;48.276;14.242;2024-03-02T10:13:10;97752.81;;;8.28;75.24
39897;BME280;25567;48.276;14.242;2024-03-02T10:15:39;97761.03;;;8.35;75.14
39897;BME280;25567;48.276;14.242;2024-03-02T10:18:10;97751.28;;;8.46;74.98
39897;BME280;25567;48.276;14.242;2024-03-02T10:20:39;97743.31;;;8.32;75.05
39897;BME280;25567;48.276;14.242;2024-03-02T10:23:13;97741.63;;;8.32;75.26
39897;BME280;25567;48.276;14.242;2024-03-02T10:25:41;97736.75;;;8.48;75.29
39897;BME280;25567;48.276;14.242;2024-03-02T10:28:23;97745.94;;;8.52;74.58
39897;BME280;25567;48.276;14.242;2024-03-02T10:30:49;97735.31;;;8.41;74.45
39897;BME280;25567;48.276;14.242;2024-03-02T10:33:18;97739.09;;;8.52;74.44
39897;BME280;25567;48.276;14.242;2024-03-02T10:35:48;97739.56;;;8.62;74.54
39897;BME280;25567;48.276;14.242;2024-03-02T10:38:17;97732.06;;;8.59;74.64
39897;BME280;25567;48.276;14.242;2024-03-02T10:40:47;97738.88;;;8.58;74.42
39897;BME280;25567;48.276;14.242;2024-03-02T10:43:15;97739.44;;;8.65;74.38
39897;BME280;25567;48.276;14.242;2024-03-02T10:45:42;97737.22;;;8.77;73.87
39897;BME280;25567;48.276;14.242;2024-03-02T10:48:10;97725.03;;;8.84;72.71
39897;BME280;25567;48.276;14.242;2024-03-02T10:50:37;97730.06;;;8.86;72.95
39897;BME280;25567;48.276;14.242;2024-03-02T10:53:03;97723.34;;;8.85;72.56
39897;BME280;25567;48.276;14.242;2024-03-02T10:55:32;97721.56;;;8.87;72.32
39897;BME280;25567;48.276;14.242;2024-03-02T10:58:00;97721.47;;;8.88;71.80
39897;BME280;25567;48.276;14.242;2024-03-02T11:00:33;97717.72;;;8.76;72.32
39897;BME280;25567;48.276;14.242;2024-03-02T11:03:05;97712.41;;;8.81;72.44
39897;BME280;25567;48.276;14.242;2024-03-02T11:05:42;97707.44;;;8.78;72.48
39897;BME280;25567;48.276;14.242;2024-03-02T11:08:13;97708.72;;;8.88;71.76
39897;BME280;25567;48.276;14.242;2024-03-02T11:10:58;97710.56;;;8.85;72.05
39897;BME280;25567;48.276;14.242;2024-03-02T11:13:33;97708.94;;;8.84;72.27
39897;BME280;25567;48.276;14.242;2024-03-02T11:16:06;97707.56;;;8.95;71.97
39897;BME280;25567;48.276;14.242;2024-03-02T11:18:37;97703.72;;;9.05;71.74
39897;BME280;25567;48.276;14.242;2024-03-02T11:21:04;97698.69;;;9.24;70.13
39897;BME280;25567;48.276;14.242;2024-03-02T11:23:33;97686.47;;;9.30;69.92
39897;BME280;25567;48.276;14.242;2024-03-02T11:26:22;97687.50;;;9.26;70.72
39897;BME280;25567;48.276;14.242;2024-03-02T11:28:52;97684.94;;;9.26;70.89
39897;BME280;25567;48.276;14.242;2024-03-02T11:31:19;97685.59;;;9.31;71.26
39897;BME280;25567;48.276;14.242;2024-03-02T11:33:46;97675.03;;;9.39;70.98
39897;BME280;25567;48.276;14.242;2024-03-02T11:36:13;97679.09;;;9.43;69.57
39897;BME280;25567;48.276;14.242;2024-03-02T11:38:43;97677.78;;;9.53;69.60
39897;BME280;25567;48.276;14.242;2024-03-02T11:41:10;97670.50;;;9.45;70.27
39897;BME280;25567;48.276;14.242;2024-03-02T11:43:38;97662.94;;;9.42;71.07
39897;BME280;25567;48.276;14.242;2024-03-02T11:46:08;97668.97;;;9.60;70.27
39897;BME280;25567;48.276;14.242;2024-03-02T11:48:36;97666.84;;;9.69;70.73
39897;BME280;25567;48.276;14.242;2024-03-02T11:51:05;97669.78;;;9.60;70.66
39897;BME280;25567;48.276;14.242;2024-03-02T11:53:33;97665.91;;;9.70;69.99
39897;BME280;25567;48.276;14.242;2024-03-02T11:56:02;97667.38;;;9.57;71.00
39897;BME280;25567;48.276;14.242;2024-03-02T11:58:29;97665.16;;;9.50;71.26
39897;BME280;25567;48.276;14.242;2024-03-02T12:00:56;97660.28;;;9.45;71.58
39897;BME280;25567;48.276;14.242;2024-03-02T12:03:25;97659.28;;;9.48;71.36
39897;BME280;25567;48.276;14.242;2024-03-02T12:05:53;97655.34;;;9.41;71.52
39897;BME280;25567;48.276;14.242;2024-03-02T12:08:21;97649.91;;;9.48;71.41
39897;BME280;25567;48.276;14.242;2024-03-02T12:10:59;97652.63;;;9.45;70.82
39897;BME280;25567;48.276;14.242;2024-03-02T12:13:28;97649.59;;;9.56;70.59
39897;BME280;25567;48.276;14.242;2024-03-02T12:15:55;97653.91;;;9.72;69.55
39897;BME280;25567;48.276;14.242;2024-03-02T12:18:23;97649.09;;;9.66;70.22
39897;BME280;25567;48.276;14.242;2024-03-02T12:20:51;97645.22;;;9.76;67.57
39897;BME280;25567;48.276;14.242;2024-03-02T12:23:24;97647.81;;;9.93;67.94
39897;BME280;25567;48.276;14.242;2024-03-02T12:25:51;97641.66;;;9.98;67.69
39897;BME280;25567;48.276;14.242;2024-03-02T12:28:19;97640.63;;;10.02;67.81
39897;BME280;25567;48.276;14.242;2024-03-02T12:30:46;97633.56;;;10.07;68.13
39897;BME280;25567;48.276;14.242;2024-03-02T12:33:14;97632.78;;;10.05;68.77
39897;BME280;25567;48.276;14.242;2024-03-02T12:35:41;97630.09;;;10.08;67.98
39897;BME280;25567;48.276;14.242;2024-03-02T12:38:09;97627.00;;;10.01;69.23
39897;BME280;25567;48.276;14.242;2024-03-02T12:40:37;97623.00;;;10.31;68.64
39897;BME280;25567;48.276;14.242;2024-03-02T12:43:05;97619.50;;;10.34;68.19
39897;BME280;25567;48.276;14.242;2024-03-02T12:45:32;97618.13;;;10.44;67.98
39897;BME280;25567;48.276;14.242;2024-03-02T12:48:00;97620.84;;;10.58;67.31
39897;BME280;25567;48.276;14.242;2024-03-02T12:50:27;97619.84;;;10.77;66.42
39897;BME280;25567;48.276;14.242;2024-03-02T12:52:55;97619.16;;;10.74;66.66
39897;BME280;25567;48.276;14.242;2024-03-02T12:55:23;97609.69;;;10.76;66.70
39897;BME280;25567;48.276;14.242;2024-03-02T12:57:51;97609.19;;;11.02;64.37
39897;BME280;25567;48.276;14.242;2024-03-02T13:00:20;97611.38;;;11.25;65.08
39897;BME280;25567;48.276;14.242;2024-03-02T13:02:47;97605.88;;;11.33;64.05
39897;BME280;25567;48.276;14.242;2024-03-02T13:05:19;97600.19;;;11.11;64.29
39897;BME280;25567;48.276;14.242;2024-03-02T13:07:50;97596.50;;;11.32;64.79